sensor_id;sensor_type;location;lat;lon;timestamp;temperature;humidity
13982;DHT22;7065;50.880;5.502;2022-09-03T00:01:09;15.30;99.90
13982;DHT22;7065;50.880;5.502;2022-09-03T00:03:51;15.30;99.90
13982;DHT22;7065;50.880;5.502;2022-09-03T00:06:25;15.30;99.90
13982;DHT22;7065;50.880;5.502;2022-09-03T00:14:24;15.20;99.90
13982;DHT22;7065;50.880;5.502;2022-09-03T00:17:02;15.20;99.90
13982;DHT22;7065;50.880;5.502;2022-09-03T00:19:39;15.20;99.90
13982;DHT22;7065;50.880;5.502;2022-09-03T00:22:12;15.10;99.90
13982;DHT22;7065;50.880;5.502;2022-09-03T00:24:41;15.10;99.90
13982;DHT22;7065;50.880;5.502;2022-09-03T00:27:12;15.10;99.90
13982;DHT22;7065;50.880;5.502;2022-09-03T00:29:45;15.00;99.90
13982;DHT22;7065;50.880;5.502;2022-09-03T00:32:20;15.00;99.90
13982;DHT22;7065;50.880;5.502;2022-09-03T00:34:52;15.00;99.90
13982;DHT22;7065;50.880;5.502;2022-09-03T00:37:21;14.90;99.90
13982;DHT22;7065;50.880;5.502;2022-09-03T00:39:47;14.90;99.90
13982;DHT22;7065;50.880;5.502;2022-09-03T00:42:38;14.90;99.90
13982;DHT22;7065;50.880;5.502;2022-09-03T00:45:48;14.90;99.90
13982;DHT22;7065;50.880;5.502;2022-09-03T00:48:21;14.90;99.90
13982;DHT22;7065;50.880;5.502;2022-09-03T00:54:05;14.80;99.90
13982;DHT22;7065;50.880;5.502;2022-09-03T00:56:39;14.80;99.90
13982;DHT22;7065;50.880;5.502;2022-09-03T01:00:13;14.80;99.90
13982;DHT22;7065;50.880;5.502;2022-09-03T01:16:01;14.70;99.90
13982;DHT22;7065;50.880;5.502;2022-09-03T01:18:45;14.80;99.90
13982;DHT22;7065;50.880;5.502;2022-09-03T01:24:10;14.80;99.90
13982;DHT22;7065;50.880;5.502;2022-09-03T01:26:52;14.90;99.90
13982;DHT22;7065;50.880;5.502;2022-09-03T01:29:23;14.90;99.90
13982;DHT22;7065;50.880;5.502;2022-09-03T01:32:18;15.00;99.90
13982;DHT22;7065;50.880;5.502;2022-09-03T01:37:40;15.10;99.90
13982;DHT22;7065;50.880;5.502;2022-09-03T01:40:20;15.20;99.90
13982;DHT22;7065;50.880;5.502;2022-09-03T01:43:33;15.20;99.90
13982;DHT22;7065;50.880;5.502;2022-09-03T01:46:09;15.30;99.90
13982;DHT22;7065;50.880;5.502;2022-09-03T01:48:44;15.30;99.90
13982;DHT22;7065;50.880;5.502;2022-09-03T01:51:20;15.40;99.90
13982;DHT22;7065;50.880;5.502;2022-09-03T01:59:25;15.50;99.90
13982;DHT22;7065;50.880;5.502;2022-09-03T02:02:14;15.40;99.90
13982;DHT22;7065;50.880;5.502;2022-09-03T02:07:43;15.40;99.90
13982;DHT22;7065;50.880;5.502;2022-09-03T02:10:31;15.40;99.90
13982;DHT22;7065;50.880;5.502;2022-09-03T02:13:24;15.50;99.90
13982;DHT22;7065;50.880;5.502;2022-09-03T02:15:52;15.50;99.90
13982;DHT22;7065;50.880;5.502;2022-09-03T02:18:27;15.60;99.90
13982;DHT22;7065;50.880;5.502;2022-09-03T02:20:56;15.60;99.90
13982;DHT22;7065;50.880;5.502;2022-09-03T02:23:24;15.60;99.90
13982;DHT22;7065;50.880;5.502;2022-09-03T02:25:54;15.60;99.90
13982;DHT22;7065;50.880;5.502;2022-09-03T02:28:20;15.60;99.90
13982;DHT22;7065;50.880;5.502;2022-09-03T02:30:46;15.60;99.90
13982;DHT22;7065;50.880;5.502;2022-09-03T02:33:13;15.60;99.90
13982;DHT22;7065;50.880;5.502;2022-09-03T02:35:40;15.60;99.90
13982;DHT22;7065;50.880;5.502;2022-09-03T02:38:15;15.60;99.90
13982;DHT22;7065;50.880;5.502;2022-09-03T02:40:41;15.60;99.90
13982;DHT22;7065;50.880;5.502;2022-09-03T02:43:21;15.60;99.90
13982;DHT22;7065;50.880;5.502;2022-09-03T02:45:50;15.60;99.90
13982;DHT22;7065;50.880;5.502;2022-09-03T02:48:20;15.60;99.90
13982;DHT22;7065;50.880;5.502;2022-09-03T02:50:47;15.60;99.90
13982;DHT22;7065;50.880;5.502;2022-09-03T02:53:13;15.60;99.90
13982;DHT22;7065;50.880;5.502;2022-09-03T02:55:39;15.60;99.90
13982;DHT22;7065;50.880;5.502;2022-09-03T02:58:05;15.60;99.90
13982;DHT22;7065;50.880;5.502;2022-09-03T03:00:33;15.60;99.90
13982;DHT22;7065;50.880;5.502;2022-09-03T03:03:00;15.60;99.90
13982;DHT22;7065;50.880;5.502;2022-09-03T03:05:47;15.60;99.90
13982;DHT22;7065;50.880;5.502;2022-09-03T03:08:14;15.60;99.90
13982;DHT22;7065;50.880;5.502;2022-09-03T03:10:42;15.50;99.90
13982;DHT22;7065;50.880;5.502;2022-09-03T03:13:09;15.50;99.90
13982;DHT22;7065;50.880;5.502;2022-09-03T03:15:36;15.50;99.90
13982;DHT22;7065;50.880;5.502;2022-09-03T03:18:01;15.50;99.90
13982;DHT22;7065;50.880;5.502;2022-09-03T03:20:27;15.50;99.90
13982;DHT22;7065;50.880;5.502;2022-09-03T03:22:53;15.50;99.90
13982;DHT22;7065;50.880;5.502;2022-09-03T03:25:19;15.50;99.90
13982;DHT22;7065;50.880;5.502;2022-09-03T03:27:44;15.50;99.90
13982;DHT22;7065;50.880;5.502;2022-09-03T03:30:11;15.50;99.90
13982;DHT22;7065;50.880;5.502;2022-09-03T03:32:37;15.50;99.90
13982;DHT22;7065;50.880;5.502;2022-09-03T03:35:04;15.50;99.90
13982;DHT22;7065;50.880;5.502;2022-09-03T03:37:31;15.60;99.90
13982;DHT22;7065;50.880;5.502;2022-09-03T03:39:58;15.50;99.90
13982;DHT22;7065;50.880;5.502;2022-09-03T03:42:24;15.50;99.90
13982;DHT22;7065;50.880;5.502;2022-09-03T03:44:49;15.50;99.90
13982;DHT22;7065;50.880;5.502;2022-09-03T03:47:15;15.50;99.90
13982;DHT22;7065;50.880;5.502;2022-09-03T03:49:42;15.50;99.90
13982;DHT22;7065;50.880;5.502;2022-09-03T03:52:08;15.50;99.90
13982;DHT22;7065;50.880;5.502;2022-09-03T03:54:33;15.60;99.90
13982;DHT22;7065;50.880;5.502;2022-09-03T03:56:59;15.60;99.90
13982;DHT22;7065;50.880;5.502;2022-09-03T03:59:25;15.60;99.90
13982;DHT22;7065;50.880;5.502;2022-09-03T04:01:53;15.60;99.90
13982;DHT22;7065;50.880;5.502;2022-09-03T04:04:19;15.60;99.90
13982;DHT22;7065;50.880;5.502;2022-09-03T04:06:45;15.60;99.90
13982;DHT22;7065;50.880;5.502;2022-09-03T04:09:11;15.60;99.90
13982;DHT22;7065;50.880;5.502;2022-09-03T04:11:36;15.60;99.90
13982;DHT22;7065;50.880;5.502;2022-09-03T04:14:02;15.70;99.90
13982;DHT22;7065;50.880;5.502;2022-09-03T04:16:28;15.70;99.90
13982;DHT22;7065;50.880;5.502;2022-09-03T04:18:55;15.70;99.90
13982;DHT22;7065;50.880;5.502;2022-09-03T04:21:25;15.70;99.90
13982;DHT22;7065;50.880;5.502;2022-09-03T04:23:52;15.70;99.90
13982;DHT22;7065;50.880;5.502;2022-09-03T04:26:23;15.70;99.90
13982;DHT22;7065;50.880;5.502;2022-09-03T04:28:50;15.70;99.90
13982;DHT22;7065;50.880;5.502;2022-09-03T04:31:18;15.70;99.90
13982;DHT22;7065;50.880;5.502;2022-09-03T04:33:44;15.70;99.90
13982;DHT22;7065;50.880;5.502;2022-09-03T04:36:17;15.70;99.90
13982;DHT22;7065;50.880;5.502;2022-09-03T04:38:45;15.70;99.90
13982;DHT22;7065;50.880;5.502;2022-09-03T04:41:15;15.70;99.90
13982;DHT22;7065;50.880;5.502;2022-09-03T04:43:41;15.70;99.90
13982;DHT22;7065;50.880;5.502;2022-09-03T04:46:08;15.70;99.90
13982;DHT22;7065;50.880;5.502;2022-09-03T04:48:35;15.70;99.90
13982;DHT22;7065;50.880;5.502;2022-09-03T04:51:07;15.70;99.90
13982;DHT22;7065;50.880;5.502;2022-09-03T04:53:35;15.80;99.90
13982;DHT22;7065;50.880;5.502;2022-09-03T04:56:01;15.80;99.90
13982;DHT22;7065;50.880;5.502;2022-09-03T04:58:27;15.80;99.90
13982;DHT22;7065;50.880;5.502;2022-09-03T05:00:53;15.80;99.90
13982;DHT22;7065;50.880;5.502;2022-09-03T05:03:19;15.80;99.90
13982;DHT22;7065;50.880;5.502;2022-09-03T05:05:55;15.80;99.90
13982;DHT22;7065;50.880;5.502;2022-09-03T05:08:22;15.80;99.90
13982;DHT22;7065;50.880;5.502;2022-09-03T05:10:48;15.80;99.90
13982;DHT22;7065;50.880;5.502;2022-09-03T05:13:14;15.90;99.90
13982;DHT22;7065;50.880;5.502;2022-09-03T05:15:39;15.90;99.90
13982;DHT22;7065;50.880;5.502;2022-09-03T05:18:08;15.90;99.90
13982;DHT22;7065;50.880;5.502;2022-09-03T05:20:33;15.90;99.90
13982;DHT22;7065;50.880;5.502;2022-09-03T05:23:02;15.90;99.90
13982;DHT22;7065;50.880;5.502;2022-09-03T05:25:29;15.90;99.90
13982;DHT22;7065;50.880;5.502;2022-09-03T05:27:57;16.00;99.90
13982;DHT22;7065;50.880;5.502;2022-09-03T05:30:23;16.00;99.90
13982;DHT22;7065;50.880;5.502;2022-09-03T05:32:50;16.00;99.90
13982;DHT22;7065;50.880;5.502;2022-09-03T05:35:16;16.00;99.90
13982;DHT22;7065;50.880;5.502;2022-09-03T05:37:43;16.10;99.90
13982;DHT22;7065;50.880;5.502;2022-09-03T05:40:09;16.10;99.90
13982;DHT22;7065;50.880;5.502;2022-09-03T05:42:39;16.10;99.90
13982;DHT22;7065;50.880;5.502;2022-09-03T05:45:08;16.20;99.90
13982;DHT22;7065;50.880;5.502;2022-09-03T05:47:38;16.20;99.90
13982;DHT22;7065;50.880;5.502;2022-09-03T05:50:07;16.30;99.90
13982;DHT22;7065;50.880;5.502;2022-09-03T05:52:35;16.30;99.90
13982;DHT22;7065;50.880;5.502;2022-09-03T05:55:02;16.40;99.90
13982;DHT22;7065;50.880;5.502;2022-09-03T05:57:28;16.50;99.90
13982;DHT22;7065;50.880;5.502;2022-09-03T05:59:55;16.50;99.90
13982;DHT22;7065;50.880;5.502;2022-09-03T06:02:21;16.50;99.90
13982;DHT22;7065;50.880;5.502;2022-09-03T06:04:47;16.50;99.90
13982;DHT22;7065;50.880;5.502;2022-09-03T06:07:13;16.60;99.90
13982;DHT22;7065;50.880;5.502;2022-09-03T06:09:39;16.60;99.90
13982;DHT22;7065;50.880;5.502;2022-09-03T06:12:06;16.60;99.90
13982;DHT22;7065;50.880;5.502;2022-09-03T06:14:31;16.60;99.90
13982;DHT22;7065;50.880;5.502;2022-09-03T06:16:57;16.70;99.90
13982;DHT22;7065;50.880;5.502;2022-09-03T06:19:23;16.70;99.90
13982;DHT22;7065;50.880;5.502;2022-09-03T06:21:49;16.80;99.90
13982;DHT22;7065;50.880;5.502;2022-09-03T06:24:18;16.80;99.90
13982;DHT22;7065;50.880;5.502;2022-09-03T06:26:46;16.90;99.90
13982;DHT22;7065;50.880;5.502;2022-09-03T06:29:12;16.90;99.90
13982;DHT22;7065;50.880;5.502;2022-09-03T06:31:39;17.00;99.90
13982;DHT22;7065;50.880;5.502;2022-09-03T06:34:05;17.00;99.90
13982;DHT22;7065;50.880;5.502;2022-09-03T06:36:31;17.10;99.90
13982;DHT22;7065;50.880;5.502;2022-09-03T06:38:57;17.10;99.90
13982;DHT22;7065;50.880;5.502;2022-09-03T06:41:28;17.10;99.90
13982;DHT22;7065;50.880;5.502;2022-09-03T06:43:58;17.10;99.90
13982;DHT22;7065;50.880;5.502;2022-09-03T06:46:26;17.10;99.90
13982;DHT22;7065;50.880;5.502;2022-09-03T06:48:52;17.10;99.90
13982;DHT22;7065;50.880;5.502;2022-09-03T06:51:24;17.10;99.90
13982;DHT22;7065;50.880;5.502;2022-09-03T06:54:03;17.00;99.90
13982;DHT22;7065;50.880;5.502;2022-09-03T06:56:29;17.00;99.90
13982;DHT22;7065;50.880;5.502;2022-09-03T06:58:59;17.00;99.90
13982;DHT22;7065;50.880;5.502;2022-09-03T07:01:29;17.00;99.90
13982;DHT22;7065;50.880;5.502;2022-09-03T07:04:03;17.00;99.90
13982;DHT22;7065;50.880;5.502;2022-09-03T07:06:32;17.10;99.90
13982;DHT22;7065;50.880;5.502;2022-09-03T07:08:58;17.10;99.90
13982;DHT22;7065;50.880;5.502;2022-09-03T07:11:26;17.20;99.90
13982;DHT22;7065;50.880;5.502;2022-09-03T07:13:54;17.30;99.90
13982;DHT22;7065;50.880;5.502;2022-09-03T07:16:25;17.40;99.90
13982;DHT22;7065;50.880;5.502;2022-09-03T07:18:53;17.40;99.90
13982;DHT22;7065;50.880;5.502;2022-09-03T07:21:21;17.40;99.90
13982;DHT22;7065;50.880;5.502;2022-09-03T07:23:49;17.50;99.90
13982;DHT22;7065;50.880;5.502;2022-09-03T07:26:19;17.60;99.90
13982;DHT22;7065;50.880;5.502;2022-09-03T07:28:45;17.60;99.90
13982;DHT22;7065;50.880;5.502;2022-09-03T07:31:20;17.70;99.90
13982;DHT22;7065;50.880;5.502;2022-09-03T07:33:56;17.70;99.90
13982;DHT22;7065;50.880;5.502;2022-09-03T07:36:24;17.80;99.90
13982;DHT22;7065;50.880;5.502;2022-09-03T07:38:53;18.00;99.90
13982;DHT22;7065;50.880;5.502;2022-09-03T07:41:19;18.00;99.90
13982;DHT22;7065;50.880;5.502;2022-09-03T07:43:46;18.10;99.90
13982;DHT22;7065;50.880;5.502;2022-09-03T07:46:18;18.20;99.90
13982;DHT22;7065;50.880;5.502;2022-09-03T07:48:58;18.30;99.90
13982;DHT22;7065;50.880;5.502;2022-09-03T07:51:26;18.40;99.90
13982;DHT22;7065;50.880;5.502;2022-09-03T07:53:57;18.40;99.90
13982;DHT22;7065;50.880;5.502;2022-09-03T07:56:25;18.60;99.90
13982;DHT22;7065;50.880;5.502;2022-09-03T07:58:51;18.70;99.90
13982;DHT22;7065;50.880;5.502;2022-09-03T08:01:20;18.80;99.90
13982;DHT22;7065;50.880;5.502;2022-09-03T08:03:48;18.90;99.90
13982;DHT22;7065;50.880;5.502;2022-09-03T08:06:15;19.00;99.90
13982;DHT22;7065;50.880;5.502;2022-09-03T08:08:42;19.20;99.90
13982;DHT22;7065;50.880;5.502;2022-09-03T08:11:19;19.40;99.90
13982;DHT22;7065;50.880;5.502;2022-09-03T08:13:55;19.60;99.90
13982;DHT22;7065;50.880;5.502;2022-09-03T08:16:25;19.90;99.90
13982;DHT22;7065;50.880;5.502;2022-09-03T08:18:51;20.10;99.90
13982;DHT22;7065;50.880;5.502;2022-09-03T08:21:18;20.20;99.90
13982;DHT22;7065;50.880;5.502;2022-09-03T08:23:49;20.40;99.90
13982;DHT22;7065;50.880;5.502;2022-09-03T08:26:16;20.50;99.90
13982;DHT22;7065;50.880;5.502;2022-09-03T08:28:43;20.70;99.90
13982;DHT22;7065;50.880;5.502;2022-09-03T08:31:15;20.80;99.90
13982;DHT22;7065;50.880;5.502;2022-09-03T08:33:44;20.80;99.90
13982;DHT22;7065;50.880;5.502;2022-09-03T08:36:13;21.00;99.90
13982;DHT22;7065;50.880;5.502;2022-09-03T08:38:40;21.10;99.90
13982;DHT22;7065;50.880;5.502;2022-09-03T08:41:11;21.00;99.90
13982;DHT22;7065;50.880;5.502;2022-09-03T08:46:25;21.10;99.90
13982;DHT22;7065;50.880;5.502;2022-09-03T08:48:57;21.20;99.90
13982;DHT22;7065;50.880;5.502;2022-09-03T08:51:24;21.20;99.90
13982;DHT22;7065;50.880;5.502;2022-09-03T08:53:53;21.30;99.90
13982;DHT22;7065;50.880;5.502;2022-09-03T08:56:31;21.30;99.90
13982;DHT22;7065;50.880;5.502;2022-09-03T08:59:00;21.40;99.90
13982;DHT22;7065;50.880;5.502;2022-09-03T09:01:35;21.50;99.90
13982;DHT22;7065;50.880;5.502;2022-09-03T09:09:26;21.50;99.90
13982;DHT22;7065;50.880;5.502;2022-09-03T09:12:09;21.50;99.90
13982;DHT22;7065;50.880;5.502;2022-09-03T09:17:52;21.50;99.90
13982;DHT22;7065;50.880;5.502;2022-09-03T09:20:39;21.60;99.90
13982;DHT22;7065;50.880;5.502;2022-09-03T09:23:13;21.60;99.90
13982;DHT22;7065;50.880;5.502;2022-09-03T09:25:47;21.80;99.90
13982;DHT22;7065;50.880;5.502;2022-09-03T09:30:42;22.10;99.90
13982;DHT22;7065;50.880;5.502;2022-09-03T09:33:09;22.20;99.90
13982;DHT22;7065;50.880;5.502;2022-09-03T09:35:35;22.20;99.90
13982;DHT22;7065;50.880;5.502;2022-09-03T09:38:01;22.20;99.90
13982;DHT22;7065;50.880;5.502;2022-09-03T09:40:33;22.30;99.90
13982;DHT22;7065;50.880;5.502;2022-09-03T09:43:18;22.40;99.90
13982;DHT22;7065;50.880;5.502;2022-09-03T09:46:07;22.40;99.90
13982;DHT22;7065;50.880;5.502;2022-09-03T09:48:38;22.50;99.90
13982;DHT22;7065;50.880;5.502;2022-09-03T09:51:11;22.50;99.90
13982;DHT22;7065;50.880;5.502;2022-09-03T09:53:38;22.60;99.90
13982;DHT22;7065;50.880;5.502;2022-09-03T09:56:04;22.70;99.90
13982;DHT22;7065;50.880;5.502;2022-09-03T09:58:31;22.70;99.90
13982;DHT22;7065;50.880;5.502;2022-09-03T10:03:26;23.00;99.90
13982;DHT22;7065;50.880;5.502;2022-09-03T10:06:04;23.00;99.90
13982;DHT22;7065;50.880;5.502;2022-09-03T10:08:52;23.20;99.90
13982;DHT22;7065;50.880;5.502;2022-09-03T10:11:19;23.40;99.90
13982;DHT22;7065;50.880;5.502;2022-09-03T10:13:47;23.60;99.90
13982;DHT22;7065;50.880;5.502;2022-09-03T10:16:22;23.80;99.90
13982;DHT22;7065;50.880;5.502;2022-09-03T10:19:16;24.00;99.90
13982;DHT22;7065;50.880;5.502;2022-09-03T10:22:03;24.10;99.90
13982;DHT22;7065;50.880;5.502;2022-09-03T10:24:46;24.20;99.90
13982;DHT22;7065;50.880;5.502;2022-09-03T10:27:16;24.30;99.90
13982;DHT22;7065;50.880;5.502;2022-09-03T10:29:43;24.30;99.90
13982;DHT22;7065;50.880;5.502;2022-09-03T10:35:17;24.40;99.90
13982;DHT22;7065;50.880;5.502;2022-09-03T10:40:35;24.40;99.90
13982;DHT22;7065;50.880;5.502;2022-09-03T10:48:53;24.60;99.90
13982;DHT22;7065;50.880;5.502;2022-09-03T11:05:32;24.60;99.90
13982;DHT22;7065;50.880;5.502;2022-09-03T11:11:15;24.70;99.90
13982;DHT22;7065;50.880;5.502;2022-09-03T11:16:31;24.70;99.90
13982;DHT22;7065;50.880;5.502;2022-09-03T11:19:05;24.70;99.90
13982;DHT22;7065;50.880;5.502;2022-09-03T11:21:33;24.70;99.90
13982;DHT22;7065;50.880;5.502;2022-09-03T11:24:13;24.70;99.90
13982;DHT22;7065;50.880;5.502;2022-09-03T11:26:45;24.90;99.90
13982;DHT22;7065;50.880;5.502;2022-09-03T11:29:19;25.00;99.90
13982;DHT22;7065;50.880;5.502;2022-09-03T11:31:58;25.00;99.90
13982;DHT22;7065;50.880;5.502;2022-09-03T11:34:27;25.00;99.90
13982;DHT22;7065;50.880;5.502;2022-09-03T11:37:29;25.10;99.90
13982;DHT22;7065;50.880;5.502;2022-09-03T11:42:37;25.20;99.90
13982;DHT22;7065;50.880;5.502;2022-09-03T11:45:33;25.20;99.90
13982;DHT22;7065;50.880;5.502;2022-09-03T11:48:00;25.10;99.90
13982;DHT22;7065;50.880;5.502;2022-09-03T11:50:31;25.00;99.90
13982;DHT22;7065;50.880;5.502;2022-09-03T11:53:23;24.90;99.90
13982;DHT22;7065;50.880;5.502;2022-09-03T11:58:29;25.00;99.90
13982;DHT22;7065;50.880;5.502;2022-09-03T12:00:57;25.10;99.90
13982;DHT22;7065;50.880;5.502;2022-09-03T12:03:35;25.10;99.90
13982;DHT22;7065;50.880;5.502;2022-09-03T12:09:37;24.90;99.90
13982;DHT22;7065;50.880;5.502;2022-09-03T12:17:49;24.70;99.90
13982;DHT22;7065;50.880;5.502;2022-09-03T12:20:36;24.70;99.90
13982;DHT22;7065;50.880;5.502;2022-09-03T12:23:02;24.80;99.90
13982;DHT22;7065;50.880;5.502;2022-09-03T12:25:28;24.90;99.90
13982;DHT22;7065;50.880;5.502;2022-09-03T12:27:53;25.00;99.90
13982;DHT22;7065;50.880;5.502;2022-09-03T12:30:22;25.20;99.90
13982;DHT22;7065;50.880;5.502;2022-09-03T12:32:50;25.20;99.90
13982;DHT22;7065;50.880;5.502;2022-09-03T12:35:18;25.20;99.90
13982;DHT22;7065;50.880;5.502;2022-09-03T12:37:45;25.30;99.90
13982;DHT22;7065;50.880;5.502;2022-09-03T12:40:22;25.40;99.90
13982;DHT22;7065;50.880;5.502;2022-09-03T12:42:51;25.40;99.90
13982;DHT22;7065;50.880;5.502;2022-09-03T12:45:25;25.40;99.90
13982;DHT22;7065;50.880;5.502;2022-09-03T12:47:51;25.40;99.90
13982;DHT22;7065;50.880;5.502;2022-09-03T12:50:22;25.40;99.90
13982;DHT22;7065;50.880;5.502;2022-09-03T12:53:00;25.30;99.90
13982;DHT22;7065;50.880;5.502;2022-09-03T12:55:34;25.30;99.90
13982;DHT22;7065;50.880;5.502;2022-09-03T13:03:34;25.30;99.90
13982;DHT22;7065;50.880;5.502;2022-09-03T13:06:08;25.40;99.90
13982;DHT22;7065;50.880;5.502;2022-09-03T13:08:44;25.50;99.90
13982;DHT22;7065;50.880;5.502;2022-09-03T13:11:15;25.60;99.90
13982;DHT22;7065;50.880;5.502;2022-09-03T13:13:54;25.80;99.90
13982;DHT22;7065;50.880;5.502;2022-09-03T14:17:21;28.20;99.90
13982;DHT22;7065;50.880;5.502;2022-09-03T14:19:59;28.20;99.90
13982;DHT22;7065;50.880;5.502;2022-09-03T14:26:00;28.20;99.90
13982;DHT22;7065;50.880;5.502;2022-09-03T14:28:33;28.10;99.90
13982;DHT22;7065;50.880;5.502;2022-09-03T14:39:14;28.20;99.90
13982;DHT22;7065;50.880;5.502;2022-09-03T14:41:55;28.30;99.90
13982;DHT22;7065;50.880;5.502;2022-09-03T14:47:12;28.50;99.90
13982;DHT22;7065;50.880;5.502;2022-09-03T14:55:13;28.30;99.90
13982;DHT22;7065;50.880;5.502;2022-09-03T15:00:16;27.80;99.90
13982;DHT22;7065;50.880;5.502;2022-09-03T15:11:22;27.60;99.90
13982;DHT22;7065;50.880;5.502;2022-09-03T15:22:45;27.50;99.90
13982;DHT22;7065;50.880;5.502;2022-09-03T15:31:40;27.20;99.90
13982;DHT22;7065;50.880;5.502;2022-09-03T15:33:36;27.20;99.90
13982;DHT22;7065;50.880;5.502;2022-09-03T15:36:39;27.10;99.90
13982;DHT22;7065;50.880;5.502;2022-09-03T15:39:12;27.10;99.90
13982;DHT22;7065;50.880;5.502;2022-09-03T15:41:51;27.00;99.90
13982;DHT22;7065;50.880;5.502;2022-09-03T15:44:22;27.00;99.90
13982;DHT22;7065;50.880;5.502;2022-09-03T15:47:10;27.00;99.90
13982;DHT22;7065;50.880;5.502;2022-09-03T15:49:46;27.00;99.90
13982;DHT22;7065;50.880;5.502;2022-09-03T15:52:36;27.00;99.90
13982;DHT22;7065;50.880;5.502;2022-09-03T16:00:21;27.00;99.90
13982;DHT22;7065;50.880;5.502;2022-09-03T16:03:12;27.00;99.90
13982;DHT22;7065;50.880;5.502;2022-09-03T16:08:28;27.20;99.90
13982;DHT22;7065;50.880;5.502;2022-09-03T16:11:12;27.30;99.90
13982;DHT22;7065;50.880;5.502;2022-09-03T16:14:14;27.60;99.90
13982;DHT22;7065;50.880;5.502;2022-09-03T16:16:46;28.00;99.90
13982;DHT22;7065;50.880;5.502;2022-09-03T16:19:40;28.40;99.90
13982;DHT22;7065;50.880;5.502;2022-09-03T16:22:29;28.90;99.90
13982;DHT22;7065;50.880;5.502;2022-09-03T16:25:06;29.50;99.90
13982;DHT22;7065;50.880;5.502;2022-09-03T16:27:34;29.60;99.90
13982;DHT22;7065;50.880;5.502;2022-09-03T16:30:13;29.40;99.90
13982;DHT22;7065;50.880;5.502;2022-09-03T16:35:29;28.70;99.90
13982;DHT22;7065;50.880;5.502;2022-09-03T16:46:16;27.50;99.90
13982;DHT22;7065;50.880;5.502;2022-09-03T16:54:05;26.90;99.90
13982;DHT22;7065;50.880;5.502;2022-09-03T17:07:37;26.00;99.90
13982;DHT22;7065;50.880;5.502;2022-09-03T17:10:27;25.80;99.90
13982;DHT22;7065;50.880;5.502;2022-09-03T17:21:47;25.40;99.90
13982;DHT22;7065;50.880;5.502;2022-09-03T17:24:42;25.20;99.90
13982;DHT22;7065;50.880;5.502;2022-09-03T17:27:37;25.10;99.90
13982;DHT22;7065;50.880;5.502;2022-09-03T17:30:27;24.90;99.90
13982;DHT22;7065;50.880;5.502;2022-09-03T17:46:53;24.40;99.90
13982;DHT22;7065;50.880;5.502;2022-09-03T17:49:26;24.40;99.90
13982;DHT22;7065;50.880;5.502;2022-09-03T17:54:47;24.40;99.90
13982;DHT22;7065;50.880;5.502;2022-09-03T18:02:21;24.30;99.90
13982;DHT22;7065;50.880;5.502;2022-09-03T18:07:29;24.20;99.90
13982;DHT22;7065;50.880;5.502;2022-09-03T18:10:17;24.00;99.90
13982;DHT22;7065;50.880;5.502;2022-09-03T18:12:50;24.00;99.90
13982;DHT22;7065;50.880;5.502;2022-09-03T18:15:24;23.90;99.90
13982;DHT22;7065;50.880;5.502;2022-09-03T18:17:57;23.80;99.90
13982;DHT22;7065;50.880;5.502;2022-09-03T18:20:24;23.80;99.90
13982;DHT22;7065;50.880;5.502;2022-09-03T18:26:00;23.70;99.90
13982;DHT22;7065;50.880;5.502;2022-09-03T18:29:11;23.60;99.90
13982;DHT22;7065;50.880;5.502;2022-09-03T18:31:54;23.40;99.90
13982;DHT22;7065;50.880;5.502;2022-09-03T18:34:39;23.30;99.90
13982;DHT22;7065;50.880;5.502;2022-09-03T18:37:26;23.20;99.90
13982;DHT22;7065;50.880;5.502;2022-09-03T18:40:15;23.10;99.90
13982;DHT22;7065;50.880;5.502;2022-09-03T18:46:15;22.80;99.90
13982;DHT22;7065;50.880;5.502;2022-09-03T18:49:13;22.70;99.90
13982;DHT22;7065;50.880;5.502;2022-09-03T18:52:23;22.50;99.90
13982;DHT22;7065;50.880;5.502;2022-09-03T18:58:03;22.30;99.90
13982;DHT22;7065;50.880;5.502;2022-09-03T19:04:12;22.40;99.90
13982;DHT22;7065;50.880;5.502;2022-09-03T19:07:08;22.50;99.90
13982;DHT22;7065;50.880;5.502;2022-09-03T19:10:13;22.60;99.90
13982;DHT22;7065;50.880;5.502;2022-09-03T19:16:05;22.50;99.90
13982;DHT22;7065;50.880;5.502;2022-09-03T19:19:36;22.50;99.90
13982;DHT22;7065;50.880;5.502;2022-09-03T19:22:39;22.40;99.90
13982;DHT22;7065;50.880;5.502;2022-09-03T19:25:25;22.30;99.90
13982;DHT22;7065;50.880;5.502;2022-09-03T19:28:13;22.20;99.90
13982;DHT22;7065;50.880;5.502;2022-09-03T19:37:26;21.80;99.90
13982;DHT22;7065;50.880;5.502;2022-09-03T19:43:47;21.50;99.90
13982;DHT22;7065;50.880;5.502;2022-09-03T19:46:50;21.50;99.90
13982;DHT22;7065;50.880;5.502;2022-09-03T19:52:43;21.40;99.90
13982;DHT22;7065;50.880;5.502;2022-09-03T19:55:32;21.30;99.90
13982;DHT22;7065;50.880;5.502;2022-09-03T19:58:22;21.10;99.90
13982;DHT22;7065;50.880;5.502;2022-09-03T20:01:08;21.10;99.90
13982;DHT22;7065;50.880;5.502;2022-09-03T20:03:55;21.00;99.90
13982;DHT22;7065;50.880;5.502;2022-09-03T20:06:42;20.90;99.90
13982;DHT22;7065;50.880;5.502;2022-09-03T20:09:31;20.80;99.90
13982;DHT22;7065;50.880;5.502;2022-09-03T20:12:17;20.70;99.90
13982;DHT22;7065;50.880;5.502;2022-09-03T20:14:44;20.60;99.90
13982;DHT22;7065;50.880;5.502;2022-09-03T20:17:34;20.60;99.90
13982;DHT22;7065;50.880;5.502;2022-09-03T20:22:57;20.30;99.90
13982;DHT22;7065;50.880;5.502;2022-09-03T20:28:44;20.10;99.90
13982;DHT22;7065;50.880;5.502;2022-09-03T20:31:30;20.00;99.90
13982;DHT22;7065;50.880;5.502;2022-09-03T20:34:42;20.00;99.90
13982;DHT22;7065;50.880;5.502;2022-09-03T20:45:16;20.00;99.90
13982;DHT22;7065;50.880;5.502;2022-09-03T20:50:40;20.00;99.90
13982;DHT22;7065;50.880;5.502;2022-09-03T20:53:31;20.10;99.90
13982;DHT22;7065;50.880;5.502;2022-09-03T20:56:10;20.10;99.90
13982;DHT22;7065;50.880;5.502;2022-09-03T20:58:53;20.10;99.90
13982;DHT22;7065;50.880;5.502;2022-09-03T21:07:03;19.70;99.90
13982;DHT22;7065;50.880;5.502;2022-09-03T21:09:59;19.70;99.90
13982;DHT22;7065;50.880;5.502;2022-09-03T21:15:32;19.50;99.90
13982;DHT22;7065;50.880;5.502;2022-09-03T21:23:53;19.30;99.90
13982;DHT22;7065;50.880;5.502;2022-09-03T21:26:28;19.20;99.90
13982;DHT22;7065;50.880;5.502;2022-09-03T21:32:22;19.00;99.90
13982;DHT22;7065;50.880;5.502;2022-09-03T21:38:36;18.90;99.90
13982;DHT22;7065;50.880;5.502;2022-09-03T21:40:42;18.90;99.90
13982;DHT22;7065;50.880;5.502;2022-09-03T21:46:11;18.70;99.90
13982;DHT22;7065;50.880;5.502;2022-09-03T21:48:46;18.60;99.90
13982;DHT22;7065;50.880;5.502;2022-09-03T21:51:30;18.50;99.90
13982;DHT22;7065;50.880;5.502;2022-09-03T21:54:00;18.40;99.90
13982;DHT22;7065;50.880;5.502;2022-09-03T22:01:40;18.20;99.90
13982;DHT22;7065;50.880;5.502;2022-09-03T22:04:08;18.20;99.90
13982;DHT22;7065;50.880;5.502;2022-09-03T22:06:49;18.10;99.90
13982;DHT22;7065;50.880;5.502;2022-09-03T22:09:24;18.10;99.90
13982;DHT22;7065;50.880;5.502;2022-09-03T22:12:05;18.00;99.90
13982;DHT22;7065;50.880;5.502;2022-09-03T22:14:41;18.00;99.90
13982;DHT22;7065;50.880;5.502;2022-09-03T22:19:50;18.00;99.90
13982;DHT22;7065;50.880;5.502;2022-09-03T22:22:26;17.90;99.90
13982;DHT22;7065;50.880;5.502;2022-09-03T22:27:44;17.80;99.90